sensor_id;sensor_type;location;lat;lon;timestamp;P1;durP1;ratioP1;P2;durP2;ratioP2
70106;SDS011;57473;37.508;15.080;2023-02-28T00:01:33;12.20;;;5.07;;
70106;SDS011;57473;37.508;15.080;2023-02-28T00:04:01;8.48;;;4.43;;
70106;SDS011;57473;37.508;15.080;2023-02-28T00:06:29;12.65;;;4.05;;
70106;SDS011;57473;37.508;15.080;2023-02-28T00:08:56;16.45;;;5.32;;
70106;SDS011;57473;37.508;15.080;2023-02-28T00:11:23;13.82;;;4.70;;
70106;SDS011;57473;37.508;15.080;2023-02-28T00:13:50;13.15;;;4.38;;
70106;SDS011;57473;37.508;15.080;2023-02-28T00:16:19;10.57;;;4.10;;
70106;SDS011;57473;37.508;15.080;2023-02-28T00:18:48;13.07;;;4.50;;
70106;SDS011;57473;37.508;15.080;2023-02-28T00:21:16;12.82;;;4.07;;
70106;SDS011;57473;37.508;15.080;2023-02-28T00:23:44;16.38;;;4.63;;
70106;SDS011;57473;37.508;15.080;2023-02-28T00:26:12;11.57;;;4.60;;
70106;SDS011;57473;37.508;15.080;2023-02-28T00:28:43;14.77;;;4.97;;
70106;SDS011;57473;37.508;15.080;2023-02-28T00:31:11;12.52;;;4.53;;
70106;SDS011;57473;37.508;15.080;2023-02-28T00:33:38;15.05;;;4.63;;
70106;SDS011;57473;37.508;15.080;2023-02-28T00:36:07;16.67;;;4.97;;
70106;SDS011;57473;37.508;15.080;2023-02-28T00:38:36;10.48;;;4.07;;
70106;SDS011;57473;37.508;15.080;2023-02-28T00:41:05;16.17;;;5.10;;
70106;SDS011;57473;37.508;15.080;2023-02-28T00:43:36;15.93;;;4.57;;
70106;SDS011;57473;37.508;15.080;2023-02-28T00:46:05;15.93;;;4.47;;
70106;SDS011;57473;37.508;15.080;2023-02-28T00:48:34;12.00;;;4.38;;
70106;SDS011;57473;37.508;15.080;2023-02-28T00:51:02;18.15;;;5.53;;
70106;SDS011;57473;37.508;15.080;2023-02-28T00:53:30;13.60;;;4.28;;
70106;SDS011;57473;37.508;15.080;2023-02-28T00:55:59;13.40;;;4.78;;
70106;SDS011;57473;37.508;15.080;2023-02-28T00:58:26;13.48;;;4.70;;
70106;SDS011;57473;37.508;15.080;2023-02-28T01:00:54;13.63;;;4.50;;
70106;SDS011;57473;37.508;15.080;2023-02-28T01:03:22;13.27;;;4.25;;
70106;SDS011;57473;37.508;15.080;2023-02-28T01:05:49;16.55;;;5.18;;
70106;SDS011;57473;37.508;15.080;2023-02-28T01:08:17;14.43;;;4.30;;
70106;SDS011;57473;37.508;15.080;2023-02-28T01:10:44;18.38;;;5.80;;
70106;SDS011;57473;37.508;15.080;2023-02-28T01:13:11;17.90;;;5.85;;
70106;SDS011;57473;37.508;15.080;2023-02-28T01:15:40;14.90;;;4.90;;
70106;SDS011;57473;37.508;15.080;2023-02-28T01:18:14;16.25;;;4.47;;
70106;SDS011;57473;37.508;15.080;2023-02-28T01:20:42;14.35;;;4.45;;
70106;SDS011;57473;37.508;15.080;2023-02-28T01:23:10;16.40;;;3.90;;
70106;SDS011;57473;37.508;15.080;2023-02-28T01:25:37;14.20;;;3.78;;
70106;SDS011;57473;37.508;15.080;2023-02-28T01:28:05;16.20;;;4.18;;
70106;SDS011;57473;37.508;15.080;2023-02-28T01:30:33;15.90;;;3.58;;
70106;SDS011;57473;37.508;15.080;2023-02-28T01:33:00;12.68;;;3.90;;
70106;SDS011;57473;37.508;15.080;2023-02-28T01:35:28;15.40;;;3.72;;
70106;SDS011;57473;37.508;15.080;2023-02-28T01:37:58;15.57;;;4.13;;
70106;SDS011;57473;37.508;15.080;2023-02-28T01:43:23;8.68;;;3.80;;
70106;SDS011;57473;37.508;15.080;2023-02-28T01:45:54;18.60;;;4.63;;
70106;SDS011;57473;37.508;15.080;2023-02-28T01:48:27;14.10;;;4.60;;
70106;SDS011;57473;37.508;15.080;2023-02-28T01:51:04;22.92;;;4.25;;
70106;SDS011;57473;37.508;15.080;2023-02-28T01:53:37;12.68;;;3.08;;
70106;SDS011;57473;37.508;15.080;2023-02-28T01:56:09;12.50;;;3.08;;
70106;SDS011;57473;37.508;15.080;2023-02-28T01:58:48;13.20;;;3.55;;
70106;SDS011;57473;37.508;15.080;2023-02-28T02:01:23;11.70;;;4.22;;
70106;SDS011;57473;37.508;15.080;2023-02-28T02:03:54;15.63;;;3.95;;
70106;SDS011;57473;37.508;15.080;2023-02-28T02:06:29;11.55;;;4.00;;
70106;SDS011;57473;37.508;15.080;2023-02-28T02:09:09;17.58;;;3.88;;
70106;SDS011;57473;37.508;15.080;2023-02-28T02:11:36;12.38;;;4.13;;
70106;SDS011;57473;37.508;15.080;2023-02-28T02:22:34;9.32;;;3.47;;
70106;SDS011;57473;37.508;15.080;2023-02-28T02:36:23;15.85;;;3.47;;
70106;SDS011;57473;37.508;15.080;2023-02-28T02:38:53;14.45;;;2.97;;
70106;SDS011;57473;37.508;15.080;2023-02-28T02:44:31;13.60;;;2.67;;
70106;SDS011;57473;37.508;15.080;2023-02-28T02:47:12;16.42;;;3.40;;
70106;SDS011;57473;37.508;15.080;2023-02-28T02:49:46;19.73;;;3.47;;
70106;SDS011;57473;37.508;15.080;2023-02-28T02:52:24;17.80;;;3.63;;
70106;SDS011;57473;37.508;15.080;2023-02-28T02:54:59;15.93;;;3.25;;
70106;SDS011;57473;37.508;15.080;2023-02-28T02:57:32;15.15;;;3.08;;
70106;SDS011;57473;37.508;15.080;2023-02-28T03:00:04;14.00;;;3.33;;
70106;SDS011;57473;37.508;15.080;2023-02-28T03:02:35;14.68;;;2.95;;
70106;SDS011;57473;37.508;15.080;2023-02-28T03:05:07;12.00;;;2.78;;
70106;SDS011;57473;37.508;15.080;2023-02-28T03:07:41;18.48;;;3.53;;
70106;SDS011;57473;37.508;15.080;2023-02-28T03:10:26;16.30;;;3.40;;
70106;SDS011;57473;37.508;15.080;2023-02-28T03:13:00;17.00;;;3.20;;
70106;SDS011;57473;37.508;15.080;2023-02-28T03:15:32;11.93;;;2.90;;
70106;SDS011;57473;37.508;15.080;2023-02-28T03:18:27;15.73;;;3.47;;
70106;SDS011;57473;37.508;15.080;2023-02-28T03:21:53;11.80;;;2.97;;
70106;SDS011;57473;37.508;15.080;2023-02-28T03:24:18;19.73;;;3.13;;
70106;SDS011;57473;37.508;15.080;2023-02-28T03:26:57;13.02;;;3.30;;
70106;SDS011;57473;37.508;15.080;2023-02-28T03:29:33;15.30;;;3.35;;
70106;SDS011;57473;37.508;15.080;2023-02-28T03:34:58;18.98;;;3.50;;
70106;SDS011;57473;37.508;15.080;2023-02-28T03:37:33;18.02;;;3.53;;
70106;SDS011;57473;37.508;15.080;2023-02-28T03:40:06;21.03;;;3.40;;
70106;SDS011;57473;37.508;15.080;2023-02-28T03:42:41;24.33;;;3.30;;
70106;SDS011;57473;37.508;15.080;2023-02-28T03:45:13;13.18;;;3.10;;
70106;SDS011;57473;37.508;15.080;2023-02-28T03:52:56;23.38;;;3.78;;
70106;SDS011;57473;37.508;15.080;2023-02-28T03:55:32;24.20;;;3.55;;
70106;SDS011;57473;37.508;15.080;2023-02-28T03:58:07;17.95;;;3.10;;
70106;SDS011;57473;37.508;15.080;2023-02-28T04:01:09;23.83;;;3.83;;
70106;SDS011;57473;37.508;15.080;2023-02-28T04:03:43;25.40;;;4.10;;
70106;SDS011;57473;37.508;15.080;2023-02-28T04:06:18;23.15;;;4.20;;
70106;SDS011;57473;37.508;15.080;2023-02-28T04:08:47;29.38;;;3.70;;
70106;SDS011;57473;37.508;15.080;2023-02-28T04:11:22;27.92;;;4.43;;
70106;SDS011;57473;37.508;15.080;2023-02-28T04:13:56;19.47;;;3.40;;
70106;SDS011;57473;37.508;15.080;2023-02-28T04:16:24;13.85;;;3.45;;
70106;SDS011;57473;37.508;15.080;2023-02-28T04:19:02;23.63;;;4.22;;
70106;SDS011;57473;37.508;15.080;2023-02-28T04:21:32;24.00;;;3.65;;
70106;SDS011;57473;37.508;15.080;2023-02-28T04:24:09;19.10;;;2.97;;
70106;SDS011;57473;37.508;15.080;2023-02-28T04:26:41;14.85;;;2.50;;
70106;SDS011;57473;37.508;15.080;2023-02-28T04:29:11;27.27;;;4.00;;
70106;SDS011;57473;37.508;15.080;2023-02-28T04:31:40;17.85;;;3.90;;
70106;SDS011;57473;37.508;15.080;2023-02-28T04:34:07;26.92;;;3.03;;
70106;SDS011;57473;37.508;15.080;2023-02-28T04:36:35;14.70;;;3.00;;
70106;SDS011;57473;37.508;15.080;2023-02-28T04:39:02;28.38;;;3.83;;
70106;SDS011;57473;37.508;15.080;2023-02-28T04:41:30;17.05;;;2.78;;
70106;SDS011;57473;37.508;15.080;2023-02-28T04:43:58;20.40;;;3.00;;
70106;SDS011;57473;37.508;15.080;2023-02-28T04:46:26;12.13;;;2.97;;
70106;SDS011;57473;37.508;15.080;2023-02-28T04:48:53;24.98;;;3.13;;
70106;SDS011;57473;37.508;15.080;2023-02-28T04:51:21;20.80;;;3.33;;
70106;SDS011;57473;37.508;15.080;2023-02-28T04:53:48;21.83;;;5.20;;
70106;SDS011;57473;37.508;15.080;2023-02-28T04:56:16;18.77;;;3.15;;
70106;SDS011;57473;37.508;15.080;2023-02-28T04:58:44;18.33;;;3.08;;
70106;SDS011;57473;37.508;15.080;2023-02-28T05:03:57;13.43;;;3.30;;
70106;SDS011;57473;37.508;15.080;2023-02-28T05:06:26;15.90;;;2.70;;
70106;SDS011;57473;37.508;15.080;2023-02-28T05:08:54;20.45;;;2.95;;
70106;SDS011;57473;37.508;15.080;2023-02-28T05:11:23;16.65;;;3.30;;
70106;SDS011;57473;37.508;15.080;2023-02-28T05:13:52;22.70;;;2.80;;
70106;SDS011;57473;37.508;15.080;2023-02-28T05:16:20;25.90;;;3.90;;
70106;SDS011;57473;37.508;15.080;2023-02-28T05:18:48;25.02;;;4.38;;
70106;SDS011;57473;37.508;15.080;2023-02-28T05:21:26;18.83;;;3.13;;
70106;SDS011;57473;37.508;15.080;2023-02-28T05:23:59;18.20;;;4.30;;
70106;SDS011;57473;37.508;15.080;2023-02-28T05:26:28;23.40;;;2.80;;
70106;SDS011;57473;37.508;15.080;2023-02-28T05:28:56;21.10;;;3.75;;
70106;SDS011;57473;37.508;15.080;2023-02-28T05:31:23;16.10;;;3.42;;
70106;SDS011;57473;37.508;15.080;2023-02-28T05:33:51;17.95;;;3.22;;
70106;SDS011;57473;37.508;15.080;2023-02-28T05:36:18;18.00;;;3.15;;
70106;SDS011;57473;37.508;15.080;2023-02-28T05:38:47;22.05;;;3.25;;
70106;SDS011;57473;37.508;15.080;2023-02-28T05:41:15;27.90;;;3.47;;
70106;SDS011;57473;37.508;15.080;2023-02-28T05:43:43;26.77;;;3.25;;
70106;SDS011;57473;37.508;15.080;2023-02-28T05:46:10;20.38;;;3.30;;
70106;SDS011;57473;37.508;15.080;2023-02-28T05:48:40;22.50;;;3.42;;
70106;SDS011;57473;37.508;15.080;2023-02-28T05:51:08;16.20;;;3.40;;
70106;SDS011;57473;37.508;15.080;2023-02-28T05:53:36;26.45;;;4.38;;
70106;SDS011;57473;37.508;15.080;2023-02-28T05:56:03;18.70;;;2.67;;
70106;SDS011;57473;37.508;15.080;2023-02-28T05:58:31;21.50;;;3.95;;
70106;SDS011;57473;37.508;15.080;2023-02-28T06:00:59;19.73;;;3.40;;
70106;SDS011;57473;37.508;15.080;2023-02-28T06:03:27;31.00;;;4.97;;
70106;SDS011;57473;37.508;15.080;2023-02-28T06:05:55;20.30;;;4.22;;
70106;SDS011;57473;37.508;15.080;2023-02-28T06:08:22;27.30;;;5.60;;
70106;SDS011;57473;37.508;15.080;2023-02-28T06:10:49;43.28;;;5.82;;
70106;SDS011;57473;37.508;15.080;2023-02-28T06:13:16;27.15;;;5.90;;
70106;SDS011;57473;37.508;15.080;2023-02-28T06:15:43;36.92;;;5.32;;
70106;SDS011;57473;37.508;15.080;2023-02-28T06:18:11;30.15;;;5.30;;
70106;SDS011;57473;37.508;15.080;2023-02-28T06:20:38;29.30;;;5.72;;
70106;SDS011;57473;37.508;15.080;2023-02-28T06:23:06;36.13;;;5.72;;
70106;SDS011;57473;37.508;15.080;2023-02-28T06:25:33;34.45;;;6.00;;
70106;SDS011;57473;37.508;15.080;2023-02-28T06:28:00;38.85;;;6.55;;
70106;SDS011;57473;37.508;15.080;2023-02-28T06:30:28;32.40;;;5.80;;
70106;SDS011;57473;37.508;15.080;2023-02-28T06:32:56;42.25;;;7.78;;
70106;SDS011;57473;37.508;15.080;2023-02-28T06:35:23;26.35;;;6.90;;
70106;SDS011;57473;37.508;15.080;2023-02-28T06:37:51;38.58;;;8.00;;
70106;SDS011;57473;37.508;15.080;2023-02-28T06:40:18;39.15;;;9.52;;
70106;SDS011;57473;37.508;15.080;2023-02-28T06:42:45;40.10;;;6.78;;
70106;SDS011;57473;37.508;15.080;2023-02-28T06:45:13;38.38;;;7.85;;
70106;SDS011;57473;37.508;15.080;2023-02-28T06:47:40;41.72;;;8.20;;
70106;SDS011;57473;37.508;15.080;2023-02-28T06:50:11;33.40;;;7.85;;
70106;SDS011;57473;37.508;15.080;2023-02-28T06:52:39;51.87;;;7.17;;
70106;SDS011;57473;37.508;15.080;2023-02-28T06:55:07;52.30;;;7.50;;
70106;SDS011;57473;37.508;15.080;2023-02-28T06:57:35;60.85;;;7.57;;
70106;SDS011;57473;37.508;15.080;2023-02-28T07:00:07;47.97;;;7.72;;
70106;SDS011;57473;37.508;15.080;2023-02-28T07:02:35;48.92;;;8.57;;
70106;SDS011;57473;37.508;15.080;2023-02-28T07:05:04;59.50;;;8.35;;
70106;SDS011;57473;37.508;15.080;2023-02-28T07:07:32;62.03;;;9.88;;
70106;SDS011;57473;37.508;15.080;2023-02-28T07:10:00;55.80;;;7.10;;
70106;SDS011;57473;37.508;15.080;2023-02-28T07:12:28;62.88;;;8.00;;
70106;SDS011;57473;37.508;15.080;2023-02-28T07:14:55;52.33;;;7.60;;
70106;SDS011;57473;37.508;15.080;2023-02-28T07:17:23;60.38;;;8.52;;
70106;SDS011;57473;37.508;15.080;2023-02-28T07:19:50;62.90;;;9.23;;
70106;SDS011;57473;37.508;15.080;2023-02-28T07:22:18;52.10;;;8.27;;
70106;SDS011;57473;37.508;15.080;2023-02-28T07:24:45;64.20;;;9.45;;
70106;SDS011;57473;37.508;15.080;2023-02-28T07:27:13;50.42;;;8.90;;
70106;SDS011;57473;37.508;15.080;2023-02-28T07:29:50;49.03;;;9.88;;
70106;SDS011;57473;37.508;15.080;2023-02-28T07:32:18;61.17;;;8.32;;
70106;SDS011;57473;37.508;15.080;2023-02-28T07:34:45;74.70;;;10.02;;
70106;SDS011;57473;37.508;15.080;2023-02-28T07:37:13;69.75;;;9.02;;
70106;SDS011;57473;37.508;15.080;2023-02-28T07:39:41;76.70;;;9.60;;
70106;SDS011;57473;37.508;15.080;2023-02-28T07:42:12;53.53;;;7.75;;
70106;SDS011;57473;37.508;15.080;2023-02-28T07:44:39;61.97;;;8.45;;
70106;SDS011;57473;37.508;15.080;2023-02-28T07:47:07;67.25;;;8.63;;
70106;SDS011;57473;37.508;15.080;2023-02-28T07:49:36;56.13;;;9.23;;
70106;SDS011;57473;37.508;15.080;2023-02-28T07:52:04;66.40;;;8.75;;
70106;SDS011;57473;37.508;15.080;2023-02-28T07:54:33;63.58;;;7.47;;
70106;SDS011;57473;37.508;15.080;2023-02-28T07:57:00;63.97;;;8.27;;
70106;SDS011;57473;37.508;15.080;2023-02-28T07:59:27;60.17;;;8.18;;
70106;SDS011;57473;37.508;15.080;2023-02-28T08:01:57;58.58;;;6.97;;
70106;SDS011;57473;37.508;15.080;2023-02-28T08:04:25;56.70;;;7.53;;
70106;SDS011;57473;37.508;15.080;2023-02-28T08:06:53;58.55;;;7.88;;
70106;SDS011;57473;37.508;15.080;2023-02-28T08:09:20;53.55;;;7.97;;
70106;SDS011;57473;37.508;15.080;2023-02-28T08:11:47;58.45;;;7.18;;
70106;SDS011;57473;37.508;15.080;2023-02-28T08:14:14;47.78;;;6.43;;
70106;SDS011;57473;37.508;15.080;2023-02-28T08:16:42;51.20;;;7.20;;
70106;SDS011;57473;37.508;15.080;2023-02-28T08:19:09;51.58;;;6.63;;
70106;SDS011;57473;37.508;15.080;2023-02-28T08:21:36;46.67;;;6.15;;
70106;SDS011;57473;37.508;15.080;2023-02-28T08:24:04;58.53;;;6.72;;
70106;SDS011;57473;37.508;15.080;2023-02-28T08:26:32;50.40;;;7.15;;
70106;SDS011;57473;37.508;15.080;2023-02-28T08:28:59;61.45;;;7.22;;
70106;SDS011;57473;37.508;15.080;2023-02-28T08:31:27;49.88;;;7.03;;
70106;SDS011;57473;37.508;15.080;2023-02-28T08:33:55;48.20;;;7.93;;
70106;SDS011;57473;37.508;15.080;2023-02-28T08:36:25;49.83;;;7.07;;
70106;SDS011;57473;37.508;15.080;2023-02-28T08:38:56;50.28;;;7.20;;
70106;SDS011;57473;37.508;15.080;2023-02-28T08:41:24;55.17;;;7.95;;
70106;SDS011;57473;37.508;15.080;2023-02-28T08:43:52;56.45;;;7.72;;
70106;SDS011;57473;37.508;15.080;2023-02-28T08:46:20;52.65;;;6.85;;
70106;SDS011;57473;37.508;15.080;2023-02-28T08:48:51;47.05;;;7.85;;
70106;SDS011;57473;37.508;15.080;2023-02-28T08:51:19;61.03;;;7.30;;
70106;SDS011;57473;37.508;15.080;2023-02-28T08:53:54;42.58;;;6.57;;
70106;SDS011;57473;37.508;15.080;2023-02-28T08:56:23;44.42;;;7.13;;
70106;SDS011;57473;37.508;15.080;2023-02-28T08:58:50;48.97;;;6.43;;
70106;SDS011;57473;37.508;15.080;2023-02-28T09:01:19;58.30;;;7.15;;
70106;SDS011;57473;37.508;15.080;2023-02-28T09:03:49;50.78;;;8.07;;
70106;SDS011;57473;37.508;15.080;2023-02-28T09:06:17;52.38;;;7.15;;
70106;SDS011;57473;37.508;15.080;2023-02-28T09:08:46;51.30;;;7.10;;
70106;SDS011;57473;37.508;15.080;2023-02-28T09:11:13;45.90;;;6.65;;
70106;SDS011;57473;37.508;15.080;2023-02-28T09:13:40;52.58;;;7.32;;
70106;SDS011;57473;37.508;15.080;2023-02-28T09:16:10;49.50;;;7.10;;
70106;SDS011;57473;37.508;15.080;2023-02-28T09:18:39;42.08;;;7.03;;
70106;SDS011;57473;37.508;15.080;2023-02-28T09:21:07;54.72;;;7.95;;
70106;SDS011;57473;37.508;15.080;2023-02-28T09:23:36;38.55;;;8.20;;
70106;SDS011;57473;37.508;15.080;2023-02-28T09:26:06;41.67;;;6.13;;
70106;SDS011;57473;37.508;15.080;2023-02-28T09:28:34;48.78;;;7.10;;
70106;SDS011;57473;37.508;15.080;2023-02-28T09:31:01;48.95;;;6.45;;
70106;SDS011;57473;37.508;15.080;2023-02-28T09:33:31;48.63;;;7.15;;
70106;SDS011;57473;37.508;15.080;2023-02-28T09:36:00;40.60;;;6.50;;
70106;SDS011;57473;37.508;15.080;2023-02-28T09:38:30;51.40;;;7.18;;
70106;SDS011;57473;37.508;15.080;2023-02-28T09:41:18;57.72;;;11.02;;
70106;SDS011;57473;37.508;15.080;2023-02-28T09:43:53;41.13;;;6.43;;
70106;SDS011;57473;37.508;15.080;2023-02-28T09:49:12;53.38;;;6.90;;
70106;SDS011;57473;37.508;15.080;2023-02-28T09:54:20;46.42;;;5.80;;
70106;SDS011;57473;37.508;15.080;2023-02-28T10:12:59;51.67;;;7.68;;
70106;SDS011;57473;37.508;15.080;2023-02-28T10:15:31;59.22;;;8.57;;
70106;SDS011;57473;37.508;15.080;2023-02-28T10:18:02;55.20;;;7.03;;
70106;SDS011;57473;37.508;15.080;2023-02-28T10:23:28;59.35;;;7.30;;
70106;SDS011;57473;37.508;15.080;2023-02-28T10:26:08;51.13;;;7.22;;
70106;SDS011;57473;37.508;15.080;2023-02-28T10:28:38;48.58;;;7.85;;
70106;SDS011;57473;37.508;15.080;2023-02-28T10:31:08;61.10;;;9.80;;
70106;SDS011;57473;37.508;15.080;2023-02-28T10:33:47;56.13;;;7.90;;
70106;SDS011;57473;37.508;15.080;2023-02-28T10:36:15;47.05;;;7.03;;
70106;SDS011;57473;37.508;15.080;2023-02-28T10:38:45;53.00;;;6.70;;
70106;SDS011;57473;37.508;15.080;2023-02-28T10:41:15;51.78;;;7.95;;
70106;SDS011;57473;37.508;15.080;2023-02-28T10:44:11;48.15;;;8.15;;
70106;SDS011;57473;37.508;15.080;2023-02-28T10:46:40;63.38;;;7.30;;
70106;SDS011;57473;37.508;15.080;2023-02-28T10:49:27;61.10;;;7.40;;
70106;SDS011;57473;37.508;15.080;2023-02-28T10:51:56;57.25;;;7.03;;
70106;SDS011;57473;37.508;15.080;2023-02-28T10:54:32;58.85;;;6.85;;
70106;SDS011;57473;37.508;15.080;2023-02-28T10:57:05;63.35;;;7.35;;
70106;SDS011;57473;37.508;15.080;2023-02-28T10:59:35;60.50;;;7.55;;
70106;SDS011;57473;37.508;15.080;2023-02-28T11:02:08;55.38;;;7.47;;
70106;SDS011;57473;37.508;15.080;2023-02-28T11:05:00;49.28;;;6.38;;
70106;SDS011;57473;37.508;15.080;2023-02-28T11:07:27;51.13;;;5.88;;
70106;SDS011;57473;37.508;15.080;2023-02-28T11:10:17;71.85;;;9.82;;
70106;SDS011;57473;37.508;15.080;2023-02-28T11:12:47;52.47;;;10.00;;
70106;SDS011;57473;37.508;15.080;2023-02-28T11:23:06;50.47;;;8.80;;
70106;SDS011;57473;37.508;15.080;2023-02-28T11:25:40;51.05;;;6.20;;
70106;SDS011;57473;37.508;15.080;2023-02-28T11:28:24;65.82;;;7.63;;
70106;SDS011;57473;37.508;15.080;2023-02-28T11:33:49;57.38;;;8.77;;
70106;SDS011;57473;37.508;15.080;2023-02-28T11:39:11;68.88;;;7.78;;
70106;SDS011;57473;37.508;15.080;2023-02-28T11:47:10;62.42;;;8.05;;
70106;SDS011;57473;37.508;15.080;2023-02-28T11:53:01;52.88;;;6.90;;
70106;SDS011;57473;37.508;15.080;2023-02-28T11:55:33;62.28;;;8.55;;
70106;SDS011;57473;37.508;15.080;2023-02-28T12:03:58;62.20;;;9.70;;
70106;SDS011;57473;37.508;15.080;2023-02-28T12:09:27;63.08;;;9.23;;
70106;SDS011;57473;37.508;15.080;2023-02-28T12:23:21;68.63;;;10.40;;
70106;SDS011;57473;37.508;15.080;2023-02-28T12:31:55;64.07;;;8.65;;
70106;SDS011;57473;37.508;15.080;2023-02-28T12:34:28;64.70;;;9.55;;
70106;SDS011;57473;37.508;15.080;2023-02-28T12:37:02;78.63;;;12.80;;
70106;SDS011;57473;37.508;15.080;2023-02-28T12:39:52;71.47;;;8.65;;
70106;SDS011;57473;37.508;15.080;2023-02-28T12:42:30;68.40;;;7.75;;
70106;SDS011;57473;37.508;15.080;2023-02-28T12:45:03;69.10;;;9.50;;
70106;SDS011;57473;37.508;15.080;2023-02-28T12:47:37;69.55;;;8.95;;
70106;SDS011;57473;37.508;15.080;2023-02-28T12:50:08;52.08;;;7.18;;
70106;SDS011;57473;37.508;15.080;2023-02-28T12:58:39;70.55;;;7.93;;
70106;SDS011;57473;37.508;15.080;2023-02-28T13:10:13;57.10;;;7.85;;
70106;SDS011;57473;37.508;15.080;2023-02-28T13:12:50;60.63;;;9.27;;
70106;SDS011;57473;37.508;15.080;2023-02-28T13:15:25;56.33;;;6.80;;
70106;SDS011;57473;37.508;15.080;2023-02-28T13:18:01;56.85;;;6.65;;
70106;SDS011;57473;37.508;15.080;2023-02-28T13:20:34;68.57;;;10.55;;
70106;SDS011;57473;37.508;15.080;2023-02-28T13:23:02;58.80;;;7.28;;
70106;SDS011;57473;37.508;15.080;2023-02-28T13:28:08;57.08;;;7.45;;
70106;SDS011;57473;37.508;15.080;2023-02-28T13:33:32;57.30;;;6.95;;
70106;SDS011;57473;37.508;15.080;2023-02-28T13:52:02;44.92;;;6.22;;
70106;SDS011;57473;37.508;15.080;2023-02-28T14:00:28;47.92;;;5.40;;
70106;SDS011;57473;37.508;15.080;2023-02-28T14:11:42;35.65;;;4.97;;
70106;SDS011;57473;37.508;15.080;2023-02-28T14:14:53;36.97;;;4.57;;
70106;SDS011;57473;37.508;15.080;2023-02-28T14:17:07;28.73;;;4.45;;
70106;SDS011;57473;37.508;15.080;2023-02-28T14:19:39;43.33;;;5.25;;
70106;SDS011;57473;37.508;15.080;2023-02-28T14:25:11;46.75;;;6.70;;
70106;SDS011;57473;37.508;15.080;2023-02-28T14:31:21;39.70;;;5.55;;
70106;SDS011;57473;37.508;15.080;2023-02-28T14:36:27;41.75;;;7.70;;
70106;SDS011;57473;37.508;15.080;2023-02-28T14:39:07;40.72;;;4.80;;
70106;SDS011;57473;37.508;15.080;2023-02-28T14:41:43;39.53;;;5.60;;
70106;SDS011;57473;37.508;15.080;2023-02-28T14:44:16;41.40;;;5.95;;
70106;SDS011;57473;37.508;15.080;2023-02-28T14:46:50;42.35;;;6.00;;
70106;SDS011;57473;37.508;15.080;2023-02-28T14:49:21;50.78;;;8.25;;
70106;SDS011;57473;37.508;15.080;2023-02-28T14:52:02;43.17;;;7.65;;
70106;SDS011;57473;37.508;15.080;2023-02-28T14:54:39;54.67;;;9.63;;
70106;SDS011;57473;37.508;15.080;2023-02-28T14:57:29;55.70;;;8.15;;
70106;SDS011;57473;37.508;15.080;2023-02-28T15:02:53;40.92;;;6.97;;
70106;SDS011;57473;37.508;15.080;2023-02-28T15:05:26;44.72;;;6.80;;
70106;SDS011;57473;37.508;15.080;2023-02-28T15:08:04;42.30;;;6.25;;
70106;SDS011;57473;37.508;15.080;2023-02-28T15:10:43;60.65;;;7.78;;
70106;SDS011;57473;37.508;15.080;2023-02-28T15:13:17;55.22;;;6.22;;
70106;SDS011;57473;37.508;15.080;2023-02-28T15:18:50;40.78;;;6.55;;
70106;SDS011;57473;37.508;15.080;2023-02-28T15:21:18;49.97;;;6.88;;
70106;SDS011;57473;37.508;15.080;2023-02-28T15:23:49;62.77;;;6.57;;
70106;SDS011;57473;37.508;15.080;2023-02-28T15:26:23;55.05;;;6.85;;
70106;SDS011;57473;37.508;15.080;2023-02-28T15:29:00;61.00;;;7.57;;
70106;SDS011;57473;37.508;15.080;2023-02-28T15:31:33;60.40;;;8.25;;
70106;SDS011;57473;37.508;15.080;2023-02-28T15:40:18;46.92;;;7.32;;
70106;SDS011;57473;37.508;15.080;2023-02-28T15:45:56;48.50;;;7.50;;
70106;SDS011;57473;37.508;15.080;2023-02-28T15:48:30;51.40;;;6.05;;
70106;SDS011;57473;37.508;15.080;2023-02-28T15:51:02;60.92;;;7.95;;
70106;SDS011;57473;37.508;15.080;2023-02-28T15:53:40;56.20;;;6.63;;
70106;SDS011;57473;37.508;15.080;2023-02-28T15:59:01;42.22;;;7.53;;
70106;SDS011;57473;37.508;15.080;2023-02-28T16:01:36;43.28;;;7.93;;
70106;SDS011;57473;37.508;15.080;2023-02-28T16:07:12;51.58;;;6.15;;
70106;SDS011;57473;37.508;15.080;2023-02-28T16:09:38;46.40;;;6.53;;
70106;SDS011;57473;37.508;15.080;2023-02-28T16:12:08;43.90;;;6.78;;
70106;SDS011;57473;37.508;15.080;2023-02-28T16:14:40;54.50;;;8.15;;
70106;SDS011;57473;37.508;15.080;2023-02-28T16:17:08;43.60;;;6.50;;
70106;SDS011;57473;37.508;15.080;2023-02-28T16:19:46;48.97;;;6.75;;
70106;SDS011;57473;37.508;15.080;2023-02-28T16:22:13;41.05;;;6.05;;
70106;SDS011;57473;37.508;15.080;2023-02-28T16:24:40;57.72;;;8.82;;
70106;SDS011;57473;37.508;15.080;2023-02-28T16:30:19;48.42;;;6.20;;
70106;SDS011;57473;37.508;15.080;2023-02-28T16:32:49;40.47;;;7.03;;
70106;SDS011;57473;37.508;15.080;2023-02-28T16:35:18;46.22;;;6.80;;
70106;SDS011;57473;37.508;15.080;2023-02-28T16:37:46;50.58;;;6.82;;
70106;SDS011;57473;37.508;15.080;2023-02-28T16:40:18;44.85;;;7.28;;
70106;SDS011;57473;37.508;15.080;2023-02-28T16:42:48;46.97;;;6.65;;
70106;SDS011;57473;37.508;15.080;2023-02-28T16:45:19;39.58;;;6.13;;
70106;SDS011;57473;37.508;15.080;2023-02-28T16:47:52;45.92;;;6.93;;
70106;SDS011;57473;37.508;15.080;2023-02-28T16:50:24;39.42;;;6.60;;
70106;SDS011;57473;37.508;15.080;2023-02-28T16:52:53;47.45;;;7.57;;
70106;SDS011;57473;37.508;15.080;2023-02-28T16:55:23;41.15;;;5.68;;
70106;SDS011;57473;37.508;15.080;2023-02-28T16:57:56;35.33;;;5.65;;
70106;SDS011;57473;37.508;15.080;2023-02-28T17:00:26;42.67;;;6.47;;
70106;SDS011;57473;37.508;15.080;2023-02-28T17:02:56;43.50;;;7.55;;
70106;SDS011;57473;37.508;15.080;2023-02-28T17:05:24;38.38;;;5.93;;
70106;SDS011;57473;37.508;15.080;2023-02-28T17:07:52;39.70;;;6.65;;
70106;SDS011;57473;37.508;15.080;2023-02-28T17:10:21;39.75;;;6.30;;
70106;SDS011;57473;37.508;15.080;2023-02-28T17:12:50;37.30;;;6.20;;
70106;SDS011;57473;37.508;15.080;2023-02-28T17:15:20;39.25;;;7.00;;
70106;SDS011;57473;37.508;15.080;2023-02-28T17:17:48;48.13;;;6.78;;
70106;SDS011;57473;37.508;15.080;2023-02-28T17:20:17;51.00;;;7.65;;
70106;SDS011;57473;37.508;15.080;2023-02-28T17:22:49;49.67;;;7.20;;
70106;SDS011;57473;37.508;15.080;2023-02-28T17:25:17;44.58;;;7.22;;
70106;SDS011;57473;37.508;15.080;2023-02-28T17:27:45;38.28;;;8.32;;
70106;SDS011;57473;37.508;15.080;2023-02-28T17:30:21;47.08;;;8.02;;
70106;SDS011;57473;37.508;15.080;2023-02-28T17:32:51;35.10;;;6.65;;
70106;SDS011;57473;37.508;15.080;2023-02-28T17:35:20;50.55;;;7.63;;
70106;SDS011;57473;37.508;15.080;2023-02-28T17:37:48;48.83;;;6.82;;
70106;SDS011;57473;37.508;15.080;2023-02-28T17:40:17;55.90;;;10.00;;
70106;SDS011;57473;37.508;15.080;2023-02-28T17:42:49;45.60;;;7.45;;
70106;SDS011;57473;37.508;15.080;2023-02-28T17:45:19;38.40;;;7.63;;
70106;SDS011;57473;37.508;15.080;2023-02-28T17:47:47;42.00;;;9.20;;
70106;SDS011;57473;37.508;15.080;2023-02-28T17:50:18;51.13;;;7.97;;
70106;SDS011;57473;37.508;15.080;2023-02-28T17:52:48;46.40;;;7.22;;
70106;SDS011;57473;37.508;15.080;2023-02-28T17:55:16;49.35;;;9.40;;
70106;SDS011;57473;37.508;15.080;2023-02-28T17:57:45;44.22;;;7.32;;